sensor_id;sensor_type;location;lat;lon;timestamp;P1;durP1;ratioP1;P2;durP2;ratioP2
57893;SDS011;43710;47.460;19.034;2022-12-19T05:00:58;74.97;;;35.38;;
57893;SDS011;43710;47.460;19.034;2022-12-19T05:04:04;80.32;;;36.67;;
57893;SDS011;43710;47.460;19.034;2022-12-19T05:07:07;77.03;;;37.45;;
57893;SDS011;43710;47.460;19.034;2022-12-19T05:10:09;76.72;;;36.13;;
57893;SDS011;43710;47.460;19.034;2022-12-19T05:13:11;77.62;;;37.60;;
57893;SDS011;43710;47.460;19.034;2022-12-19T05:16:14;75.62;;;36.85;;
57893;SDS011;43710;47.460;19.034;2022-12-19T05:19:16;76.97;;;35.80;;
57893;SDS011;43710;47.460;19.034;2022-12-19T05:22:19;78.20;;;37.15;;
57893;SDS011;43710;47.460;19.034;2022-12-19T05:25:21;81.70;;;39.33;;
57893;SDS011;43710;47.460;19.034;2022-12-19T05:28:24;80.12;;;36.92;;
57893;SDS011;43710;47.460;19.034;2022-12-19T05:31:27;75.87;;;36.55;;
57893;SDS011;43710;47.460;19.034;2022-12-19T05:34:31;76.68;;;37.17;;
57893;SDS011;43710;47.460;19.034;2022-12-19T05:37:33;80.70;;;36.85;;
57893;SDS011;43710;47.460;19.034;2022-12-19T05:40:36;76.87;;;37.60;;
57893;SDS011;43710;47.460;19.034;2022-12-19T05:43:38;79.30;;;38.50;;
57893;SDS011;43710;47.460;19.034;2022-12-19T05:46:40;82.47;;;38.75;;
57893;SDS011;43710;47.460;19.034;2022-12-19T05:49:42;75.90;;;37.50;;
57893;SDS011;43710;47.460;19.034;2022-12-19T05:52:45;78.70;;;37.50;;
57893;SDS011;43710;47.460;19.034;2022-12-19T05:55:47;86.75;;;39.63;;
57893;SDS011;43710;47.460;19.034;2022-12-19T05:58:49;86.78;;;41.40;;
57893;SDS011;43710;47.460;19.034;2022-12-19T06:01:52;81.43;;;39.45;;
57893;SDS011;43710;47.460;19.034;2022-12-19T06:04:55;89.40;;;39.25;;
57893;SDS011;43710;47.460;19.034;2022-12-19T06:07:57;72.37;;;36.90;;
57893;SDS011;43710;47.460;19.034;2022-12-19T06:11:01;86.80;;;39.28;;
57893;SDS011;43710;47.460;19.034;2022-12-19T06:14:06;86.15;;;41.20;;
57893;SDS011;43710;47.460;19.034;2022-12-19T06:17:08;80.32;;;39.63;;
57893;SDS011;43710;47.460;19.034;2022-12-19T06:20:10;81.68;;;40.42;;
57893;SDS011;43710;47.460;19.034;2022-12-19T06:23:13;81.87;;;40.17;;
57893;SDS011;43710;47.460;19.034;2022-12-19T06:26:16;81.93;;;39.63;;
57893;SDS011;43710;47.460;19.034;2022-12-19T06:29:21;88.50;;;39.67;;
57893;SDS011;43710;47.460;19.034;2022-12-19T06:32:23;80.65;;;39.95;;
57893;SDS011;43710;47.460;19.034;2022-12-19T06:35:26;76.70;;;40.03;;
57893;SDS011;43710;47.460;19.034;2022-12-19T06:38:28;82.60;;;39.75;;
57893;SDS011;43710;47.460;19.034;2022-12-19T06:41:31;73.53;;;36.38;;
57893;SDS011;43710;47.460;19.034;2022-12-19T06:44:53;77.10;;;39.08;;
57893;SDS011;43710;47.460;19.034;2022-12-19T06:47:57;86.82;;;37.95;;
57893;SDS011;43710;47.460;19.034;2022-12-19T06:51:00;76.07;;;37.30;;
57893;SDS011;43710;47.460;19.034;2022-12-19T06:54:03;78.70;;;37.95;;
57893;SDS011;43710;47.460;19.034;2022-12-19T06:57:05;69.93;;;37.10;;
57893;SDS011;43710;47.460;19.034;2022-12-19T07:00:09;74.90;;;36.83;;
57893;SDS011;43710;47.460;19.034;2022-12-19T07:03:14;75.20;;;37.38;;
57893;SDS011;43710;47.460;19.034;2022-12-19T07:06:20;81.45;;;37.08;;
57893;SDS011;43710;47.460;19.034;2022-12-19T07:09:24;76.85;;;37.28;;
57893;SDS011;43710;47.460;19.034;2022-12-19T07:12:28;76.18;;;36.28;;
57893;SDS011;43710;47.460;19.034;2022-12-19T07:15:30;74.50;;;36.72;;
57893;SDS011;43710;47.460;19.034;2022-12-19T07:18:36;70.90;;;34.70;;
57893;SDS011;43710;47.460;19.034;2022-12-19T07:21:40;73.12;;;34.55;;
57893;SDS011;43710;47.460;19.034;2022-12-19T07:24:43;69.50;;;36.13;;
57893;SDS011;43710;47.460;19.034;2022-12-19T07:27:45;67.10;;;34.13;;
57893;SDS011;43710;47.460;19.034;2022-12-19T07:30:48;68.03;;;33.78;;
57893;SDS011;43710;47.460;19.034;2022-12-19T07:33:50;68.43;;;34.85;;
57893;SDS011;43710;47.460;19.034;2022-12-19T07:36:53;67.87;;;35.38;;
57893;SDS011;43710;47.460;19.034;2022-12-19T07:39:55;60.25;;;32.95;;
57893;SDS011;43710;47.460;19.034;2022-12-19T07:42:58;62.70;;;33.10;;
57893;SDS011;43710;47.460;19.034;2022-12-19T07:46:03;56.00;;;28.17;;
57893;SDS011;43710;47.460;19.034;2022-12-19T07:49:06;57.80;;;31.00;;
57893;SDS011;43710;47.460;19.034;2022-12-19T07:52:08;53.90;;;25.60;;
57893;SDS011;43710;47.460;19.034;2022-12-19T07:55:11;49.42;;;23.27;;
57893;SDS011;43710;47.460;19.034;2022-12-19T07:58:14;57.22;;;26.12;;
57893;SDS011;43710;47.460;19.034;2022-12-19T08:01:16;50.05;;;27.42;;
57893;SDS011;43710;47.460;19.034;2022-12-19T08:04:19;55.67;;;27.90;;
57893;SDS011;43710;47.460;19.034;2022-12-19T08:07:21;54.72;;;26.80;;
57893;SDS011;43710;47.460;19.034;2022-12-19T08:10:24;49.33;;;26.30;;
57893;SDS011;43710;47.460;19.034;2022-12-19T08:13:28;51.67;;;27.65;;
57893;SDS011;43710;47.460;19.034;2022-12-19T08:16:39;54.90;;;29.27;;
57893;SDS011;43710;47.460;19.034;2022-12-19T08:20:01;61.15;;;31.30;;
57893;SDS011;43710;47.460;19.034;2022-12-19T08:23:04;59.55;;;30.98;;
57893;SDS011;43710;47.460;19.034;2022-12-19T08:26:07;52.72;;;29.63;;
57893;SDS011;43710;47.460;19.034;2022-12-19T08:29:14;59.15;;;31.80;;
57893;SDS011;43710;47.460;19.034;2022-12-19T08:32:16;58.63;;;30.10;;
57893;SDS011;43710;47.460;19.034;2022-12-19T08:38:24;54.50;;;29.08;;
57893;SDS011;43710;47.460;19.034;2022-12-19T08:41:26;51.47;;;29.08;;
57893;SDS011;43710;47.460;19.034;2022-12-19T08:44:29;52.90;;;29.12;;
57893;SDS011;43710;47.460;19.034;2022-12-19T08:47:31;49.63;;;26.25;;
57893;SDS011;43710;47.460;19.034;2022-12-19T08:50:34;50.90;;;27.20;;
57893;SDS011;43710;47.460;19.034;2022-12-19T08:53:37;40.92;;;21.85;;
57893;SDS011;43710;47.460;19.034;2022-12-19T08:56:40;41.25;;;20.75;;
57893;SDS011;43710;47.460;19.034;2022-12-19T08:59:47;40.75;;;21.67;;
57893;SDS011;43710;47.460;19.034;2022-12-19T09:02:50;40.72;;;20.85;;
57893;SDS011;43710;47.460;19.034;2022-12-19T09:05:56;43.05;;;22.55;;
57893;SDS011;43710;47.460;19.034;2022-12-19T09:09:11;39.58;;;21.75;;
57893;SDS011;43710;47.460;19.034;2022-12-19T09:12:14;40.97;;;22.05;;
57893;SDS011;43710;47.460;19.034;2022-12-19T09:15:17;44.10;;;22.70;;
57893;SDS011;43710;47.460;19.034;2022-12-19T09:18:19;42.42;;;21.05;;
57893;SDS011;43710;47.460;19.034;2022-12-19T09:21:26;40.57;;;22.30;;
57893;SDS011;43710;47.460;19.034;2022-12-19T09:24:30;41.88;;;22.75;;
57893;SDS011;43710;47.460;19.034;2022-12-19T09:27:32;39.28;;;21.10;;
57893;SDS011;43710;47.460;19.034;2022-12-19T09:30:55;41.05;;;22.77;;
57893;SDS011;43710;47.460;19.034;2022-12-19T09:33:58;42.28;;;22.00;;
57893;SDS011;43710;47.460;19.034;2022-12-19T09:37:01;43.95;;;22.10;;
57893;SDS011;43710;47.460;19.034;2022-12-19T09:40:03;43.28;;;22.67;;
57893;SDS011;43710;47.460;19.034;2022-12-19T09:43:09;41.67;;;22.87;;
57893;SDS011;43710;47.460;19.034;2022-12-19T09:49:45;41.25;;;21.98;;
57893;SDS011;43710;47.460;19.034;2022-12-19T09:52:50;41.08;;;21.58;;
57893;SDS011;43710;47.460;19.034;2022-12-19T09:56:00;37.28;;;20.25;;
57893;SDS011;43710;47.460;19.034;2022-12-19T09:59:07;43.85;;;21.48;;
57893;SDS011;43710;47.460;19.034;2022-12-19T10:05:53;42.20;;;22.40;;
57893;SDS011;43710;47.460;19.034;2022-12-19T10:09:21;43.22;;;21.70;;
57893;SDS011;43710;47.460;19.034;2022-12-19T10:13:16;46.75;;;21.75;;
57893;SDS011;43710;47.460;19.034;2022-12-19T10:16:35;39.75;;;21.25;;
57893;SDS011;43710;47.460;19.034;2022-12-19T10:20:14;41.65;;;22.23;;
57893;SDS011;43710;47.460;19.034;2022-12-19T10:26:36;43.63;;;24.35;;
57893;SDS011;43710;47.460;19.034;2022-12-19T10:33:39;39.55;;;22.62;;
57893;SDS011;43710;47.460;19.034;2022-12-19T10:36:45;41.20;;;22.50;;
57893;SDS011;43710;47.460;19.034;2022-12-19T10:43:33;39.22;;;21.80;;
57893;SDS011;43710;47.460;19.034;2022-12-19T10:46:46;43.28;;;22.73;;
57893;SDS011;43710;47.460;19.034;2022-12-19T10:49:54;41.72;;;22.50;;
57893;SDS011;43710;47.460;19.034;2022-12-19T10:56:11;40.72;;;22.15;;
57893;SDS011;43710;47.460;19.034;2022-12-19T10:59:23;40.35;;;20.95;;
57893;SDS011;43710;47.460;19.034;2022-12-19T11:02:29;41.03;;;21.95;;
57893;SDS011;43710;47.460;19.034;2022-12-19T11:08:42;40.40;;;21.27;;
57893;SDS011;43710;47.460;19.034;2022-12-19T11:11:48;40.78;;;22.35;;
57893;SDS011;43710;47.460;19.034;2022-12-19T11:15:18;38.38;;;21.25;;
57893;SDS011;43710;47.460;19.034;2022-12-19T11:18:44;44.97;;;22.70;;
57893;SDS011;43710;47.460;19.034;2022-12-19T11:22:15;40.28;;;21.42;;
57893;SDS011;43710;47.460;19.034;2022-12-19T11:25:42;38.28;;;21.00;;
57893;SDS011;43710;47.460;19.034;2022-12-19T11:29:23;37.60;;;20.23;;
57893;SDS011;43710;47.460;19.034;2022-12-19T11:33:06;40.35;;;21.12;;
57893;SDS011;43710;47.460;19.034;2022-12-19T11:37:06;41.60;;;21.37;;
57893;SDS011;43710;47.460;19.034;2022-12-19T11:40:02;38.22;;;20.65;;
57893;SDS011;43710;47.460;19.034;2022-12-19T11:46:52;40.80;;;21.05;;
57893;SDS011;43710;47.460;19.034;2022-12-19T11:50:26;44.95;;;22.95;;
57893;SDS011;43710;47.460;19.034;2022-12-19T11:53:31;44.00;;;23.02;;
57893;SDS011;43710;47.460;19.034;2022-12-19T11:56:40;36.60;;;21.48;;
57893;SDS011;43710;47.460;19.034;2022-12-19T11:59:43;40.35;;;21.58;;
57893;SDS011;43710;47.460;19.034;2022-12-19T12:03:09;41.63;;;23.48;;
57893;SDS011;43710;47.460;19.034;2022-12-19T12:06:29;39.85;;;23.08;;
57893;SDS011;43710;47.460;19.034;2022-12-19T12:09:37;41.70;;;23.20;;
57893;SDS011;43710;47.460;19.034;2022-12-19T12:40:17;42.92;;;23.10;;
57893;SDS011;43710;47.460;19.034;2022-12-19T12:43:45;40.83;;;22.30;;
57893;SDS011;43710;47.460;19.034;2022-12-19T12:46:55;41.90;;;22.50;;
57893;SDS011;43710;47.460;19.034;2022-12-19T12:50:23;37.85;;;21.75;;
57893;SDS011;43710;47.460;19.034;2022-12-19T12:53:31;47.47;;;24.10;;
57893;SDS011;43710;47.460;19.034;2022-12-19T12:56:38;40.53;;;22.55;;
57893;SDS011;43710;47.460;19.034;2022-12-19T12:59:42;42.10;;;23.27;;
57893;SDS011;43710;47.460;19.034;2022-12-19T13:03:33;40.97;;;22.42;;
57893;SDS011;43710;47.460;19.034;2022-12-19T13:06:27;41.05;;;23.08;;
57893;SDS011;43710;47.460;19.034;2022-12-19T13:09:33;43.17;;;22.90;;
57893;SDS011;43710;47.460;19.034;2022-12-19T13:12:46;41.58;;;22.60;;
57893;SDS011;43710;47.460;19.034;2022-12-19T13:19:27;40.17;;;21.77;;
57893;SDS011;43710;47.460;19.034;2022-12-19T13:28:37;44.33;;;21.42;;
57893;SDS011;43710;47.460;19.034;2022-12-19T13:31:41;43.00;;;22.85;;
57893;SDS011;43710;47.460;19.034;2022-12-19T13:38:43;42.35;;;22.75;;
57893;SDS011;43710;47.460;19.034;2022-12-19T13:42:13;42.65;;;21.80;;
57893;SDS011;43710;47.460;19.034;2022-12-19T13:45:37;41.58;;;23.67;;
57893;SDS011;43710;47.460;19.034;2022-12-19T13:49:01;39.55;;;21.05;;
57893;SDS011;43710;47.460;19.034;2022-12-19T13:52:11;40.63;;;23.38;;
57893;SDS011;43710;47.460;19.034;2022-12-19T13:55:17;38.57;;;21.63;;
57893;SDS011;43710;47.460;19.034;2022-12-19T13:58:27;41.40;;;22.25;;
57893;SDS011;43710;47.460;19.034;2022-12-19T14:01:49;41.37;;;23.05;;
57893;SDS011;43710;47.460;19.034;2022-12-19T14:04:54;42.28;;;23.33;;
57893;SDS011;43710;47.460;19.034;2022-12-19T14:07:57;40.45;;;22.08;;
57893;SDS011;43710;47.460;19.034;2022-12-19T14:11:00;39.80;;;23.42;;
57893;SDS011;43710;47.460;19.034;2022-12-19T14:14:23;40.08;;;21.98;;
57893;SDS011;43710;47.460;19.034;2022-12-19T14:17:47;42.38;;;22.60;;
57893;SDS011;43710;47.460;19.034;2022-12-19T14:24:32;41.80;;;22.00;;
57893;SDS011;43710;47.460;19.034;2022-12-19T14:31:04;40.75;;;23.05;;
57893;SDS011;43710;47.460;19.034;2022-12-19T14:34:22;40.67;;;22.83;;
57893;SDS011;43710;47.460;19.034;2022-12-19T14:37:49;40.30;;;22.55;;
57893;SDS011;43710;47.460;19.034;2022-12-19T14:44:51;42.15;;;23.90;;
57893;SDS011;43710;47.460;19.034;2022-12-19T14:48:29;44.40;;;23.12;;
57893;SDS011;43710;47.460;19.034;2022-12-19T14:51:54;40.38;;;21.58;;
57893;SDS011;43710;47.460;19.034;2022-12-19T14:58:41;44.40;;;23.42;;
57893;SDS011;43710;47.460;19.034;2022-12-19T15:05:05;43.40;;;23.25;;
57893;SDS011;43710;47.460;19.034;2022-12-19T15:08:14;41.17;;;23.80;;
57893;SDS011;43710;47.460;19.034;2022-12-19T15:11:52;42.23;;;23.23;;
57893;SDS011;43710;47.460;19.034;2022-12-19T15:15:39;42.28;;;23.67;;
57893;SDS011;43710;47.460;19.034;2022-12-19T15:18:49;42.10;;;24.25;;
57893;SDS011;43710;47.460;19.034;2022-12-19T15:21:54;44.15;;;24.30;;
57893;SDS011;43710;47.460;19.034;2022-12-19T15:24:56;37.72;;;21.92;;
57893;SDS011;43710;47.460;19.034;2022-12-19T15:27:58;42.35;;;24.50;;
57893;SDS011;43710;47.460;19.034;2022-12-19T15:31:03;51.95;;;24.15;;
57893;SDS011;43710;47.460;19.034;2022-12-19T15:34:29;51.78;;;24.45;;
57893;SDS011;43710;47.460;19.034;2022-12-19T15:37:43;42.08;;;23.58;;
57893;SDS011;43710;47.460;19.034;2022-12-19T15:40:46;43.00;;;23.55;;
57893;SDS011;43710;47.460;19.034;2022-12-19T15:43:48;42.97;;;23.83;;
57893;SDS011;43710;47.460;19.034;2022-12-19T15:47:15;41.22;;;23.08;;
57893;SDS011;43710;47.460;19.034;2022-12-19T15:50:37;42.08;;;23.45;;
57893;SDS011;43710;47.460;19.034;2022-12-19T15:53:40;41.15;;;22.60;;
57893;SDS011;43710;47.460;19.034;2022-12-19T15:56:44;43.03;;;22.98;;
57893;SDS011;43710;47.460;19.034;2022-12-19T15:59:50;42.67;;;23.25;;
57893;SDS011;43710;47.460;19.034;2022-12-19T16:02:53;44.15;;;22.83;;
57893;SDS011;43710;47.460;19.034;2022-12-19T16:06:16;40.08;;;22.42;;
57893;SDS011;43710;47.460;19.034;2022-12-19T16:12:23;37.75;;;21.95;;
57893;SDS011;43710;47.460;19.034;2022-12-19T16:15:32;39.65;;;23.12;;
57893;SDS011;43710;47.460;19.034;2022-12-19T16:18:35;41.83;;;21.50;;
57893;SDS011;43710;47.460;19.034;2022-12-19T16:21:37;44.88;;;23.27;;
57893;SDS011;43710;47.460;19.034;2022-12-19T16:24:40;45.80;;;25.00;;
57893;SDS011;43710;47.460;19.034;2022-12-19T16:27:42;41.78;;;23.30;;
57893;SDS011;43710;47.460;19.034;2022-12-19T16:30:45;42.80;;;23.35;;
57893;SDS011;43710;47.460;19.034;2022-12-19T16:33:48;38.88;;;22.30;;
57893;SDS011;43710;47.460;19.034;2022-12-19T16:36:50;44.35;;;23.65;;
57893;SDS011;43710;47.460;19.034;2022-12-19T16:39:52;45.67;;;24.00;;
57893;SDS011;43710;47.460;19.034;2022-12-19T16:43:05;42.53;;;24.12;;
